WXForecasting.com
Aberdeen, SD - Weather Station Data
 
Daily Summary for July 23, 2016 Units:  English    Metric   Both
« Previous Day
Next Day »
Daily Weekly Monthly Yearly Custom
  Current: High: Low: Average:
Temperature: 80.1 °F 90.7 °F 74.7 °F 80.9 °F
Dew Point: 69.0 °F 78.0 °F 68.0 °F 72 °F
Humidity: 69 % 89 % 62 % 75 %
Wind Speed: 3.0 mph 9.0 mph 0.0 mph 2.6 mph
Wind Gust: 8.0 mph 15.0 mph - -
Wind:NNW - - South
Pressure: 29.73 in 29.92 in 29.62 in -
Precipitation: 0.00 in      
Historical Graphs
 
 
Tabular Data for July 23, 2016
Time Temperature Dew Point Pressure Wind Wind Speed Wind Gust Humidity Rainfall Rate (Hourly) solar Conditions
00:05 79.8 °F 70.0 °F 29.92 in North 2.0 mph 8.0 mph 72 % 0.00 in 0 W/m2
00:20 78.9 °F 69.0 °F 29.92 in NNW 1.0 mph 6.0 mph 72 % 0.00 in 0 W/m2
00:35 77.9 °F 69.0 °F 29.90 in North 9.0 mph 9.0 mph 74 % 0.00 in 0 W/m2
00:50 77.1 °F 69.0 °F 29.89 in North 3.0 mph 5.0 mph 75 % 0.00 in 0 W/m2
01:05 76.8 °F 69.0 °F 29.87 in North 2.0 mph 4.0 mph 76 % 0.00 in 0 W/m2
01:20 76.8 °F 69.0 °F 29.85 in NNE 2.0 mph 4.0 mph 77 % 0.00 in 0 W/m2
01:35 77.1 °F 69.0 °F 29.84 in NNE 1.0 mph 4.0 mph 76 % 0.00 in 0 W/m2
01:50 77.0 °F 69.0 °F 29.85 in Calm   2.0 mph 76 % 0.00 in 0 W/m2
02:05 76.4 °F 69.0 °F 29.86 in Calm   3.0 mph 77 % 0.00 in 0 W/m2
02:20 76.1 °F 69.0 °F 29.87 in Calm     78 % 0.00 in 0 W/m2
02:35 75.6 °F 69.0 °F 29.86 in Calm   1.0 mph 79 % 0.00 in 0 W/m2
02:50 75.8 °F 69.0 °F 29.84 in NNE 2.0 mph 4.0 mph 78 % 0.00 in 0 W/m2
03:05 75.8 °F 68.0 °F 29.82 in NNE 2.0 mph 5.0 mph 77 % 0.00 in 0 W/m2
03:20 75.7 °F 69.0 °F 29.82 in NE 2.0 mph 6.0 mph 79 % 0.00 in 0 W/m2
03:35 76.0 °F 69.0 °F 29.80 in NNE 5.0 mph 8.0 mph 78 % 0.00 in 0 W/m2
03:50 76.6 °F 69.0 °F 29.80 in Calm   6.0 mph 78 % 0.00 in 0 W/m2
04:06 76.6 °F 69.0 °F 29.80 in NNE 2.0 mph 5.0 mph 78 % 0.00 in 0 W/m2
04:20 76.2 °F 69.0 °F 29.78 in Calm   4.0 mph 79 % 0.00 in 0 W/m2
04:35 75.7 °F 69.0 °F 29.79 in ENE 1.0 mph 6.0 mph 80 % 0.00 in 0 W/m2
04:50 75.6 °F 69.0 °F 29.77 in NNE 3.0 mph 6.0 mph 80 % 0.00 in 0 W/m2
05:06 75.3 °F 69.0 °F 29.76 in North 7.0 mph 9.0 mph 81 % 0.00 in 0 W/m2
05:21 74.7 °F 69.0 °F 29.74 in NNE 1.0 mph 7.0 mph 83 % 0.00 in 0 W/m2
05:36 74.9 °F 69.0 °F 29.73 in Calm   9.0 mph 82 % 0.00 in 0 W/m2
05:51 75.1 °F 69.0 °F 29.73 in Calm   4.0 mph 82 % 0.00 in 0 W/m2
06:06 74.9 °F 69.0 °F 29.73 in ENE 1.0 mph 3.0 mph 83 % 0.00 in 9 W/m2
06:21 74.9 °F 70.0 °F 29.74 in Calm   4.0 mph 84 % 0.00 in 11 W/m2
06:36 74.9 °F 70.0 °F 29.72 in Calm   5.0 mph 84 % 0.00 in 21 W/m2
06:51 74.8 °F 70.0 °F 29.72 in ENE 3.0 mph 4.0 mph 85 % 0.00 in 33 W/m2
07:06 75.1 °F 71.0 °F 29.73 in Calm   2.0 mph 86 % 0.00 in 54 W/m2
07:21 75.5 °F 71.0 °F 29.73 in Calm     86 % 0.00 in 42 W/m2
07:36 75.9 °F 72.0 °F 29.72 in Calm   2.0 mph 86 % 0.00 in 18 W/m2
07:51 76.0 °F 72.0 °F 29.73 in Calm   2.0 mph 86 % 0.00 in 7 W/m2
08:06 76.4 °F 72.0 °F 29.69 in East 1.0 mph 2.0 mph 87 % 0.00 in 19 W/m2
08:21 76.3 °F 73.0 °F 29.67 in Calm   2.0 mph 88 % 0.00 in 26 W/m2
08:36 76.4 °F 73.0 °F 29.66 in East 2.0 mph 4.0 mph 89 % 0.00 in 60 W/m2
08:51 76.0 °F 72.0 °F 29.64 in SE 3.0 mph 7.0 mph 86 % 0.00 in 104 W/m2
09:06 76.0 °F 71.0 °F 29.62 in ESE 1.0 mph 6.0 mph 83 % 0.00 in 116 W/m2
09:21 76.0 °F 71.0 °F 29.64 in SE 2.0 mph 9.0 mph 83 % 0.00 in 116 W/m2
09:36 75.4 °F 70.0 °F 29.65 in Calm   8.0 mph 83 % 0.00 in 105 W/m2
09:51 75.1 °F 70.0 °F 29.66 in SSW 3.0 mph 12.0 mph 83 % 0.00 in 137 W/m2
10:06 75.1 °F 70.0 °F 29.65 in SSE 5.0 mph 14.0 mph 83 % 0.00 in 265 W/m2
10:21 75.8 °F 70.0 °F 29.65 in South 5.0 mph 12.0 mph 82 % 0.00 in 520 W/m2
10:36 76.8 °F 70.0 °F 29.64 in SSW 5.0 mph 15.0 mph 80 % 0.00 in 538 W/m2
10:51 78.2 °F 71.0 °F 29.64 in South 5.0 mph 13.0 mph 79 % 0.00 in 580 W/m2
11:07 78.8 °F 71.0 °F 29.64 in SSW 7.0 mph 10.0 mph 77 % 0.00 in 649 W/m2
11:21 80.6 °F 72.0 °F 29.62 in ESE 8.0 mph 8.0 mph 76 % 0.00 in 694 W/m2
11:37 81.0 °F 73.0 °F 29.64 in SSW 4.0 mph 12.0 mph 76 % 0.00 in 731 W/m2
11:52 82.5 °F 73.0 °F 29.64 in SSW 3.0 mph 10.0 mph 74 % 0.00 in 833 W/m2
12:07 82.1 °F 73.0 °F 29.64 in WSW 7.0 mph 10.0 mph 73 % 0.00 in 819 W/m2
12:22 82.7 °F 74.0 °F 29.66 in South 9.0 mph 14.0 mph 76 % 0.00 in 881 W/m2
12:37 83.6 °F 74.0 °F 29.67 in SSW 8.0 mph 11.0 mph 73 % 0.00 in 870 W/m2
12:52 84.8 °F 75.0 °F 29.67 in SSE 5.0 mph 8.0 mph 73 % 0.00 in 877 W/m2
13:07 85.0 °F 75.0 °F 29.67 in SW 1.0 mph 5.0 mph 73 % 0.00 in 840 W/m2
13:22 85.4 °F 76.0 °F 29.67 in South 1.0 mph 2.0 mph 73 % 0.00 in 338 W/m2
13:37 86.4 °F 76.0 °F 29.67 in Calm   6.0 mph 70 % 0.00 in 485 W/m2
13:52 86.3 °F 75.0 °F 29.66 in Calm   4.0 mph 69 % 0.00 in 204 W/m2
14:07 87.5 °F 77.0 °F 29.65 in Calm   5.0 mph 72 % 0.00 in 838 W/m2
14:22 88.2 °F 78.0 °F 29.66 in SE 1.0 mph 9.0 mph 71 % 0.00 in 977 W/m2
14:37 88.2 °F 77.0 °F 29.66 in SE 2.0 mph 6.0 mph 70 % 0.00 in 346 W/m2
14:52 88.4 °F 77.0 °F 29.66 in Calm   6.0 mph 69 % 0.00 in 960 W/m2
15:07 89.3 °F 77.0 °F 29.65 in Calm   4.0 mph 67 % 0.00 in 800 W/m2
15:22 89.5 °F 78.0 °F 29.65 in Calm   4.0 mph 68 % 0.00 in 756 W/m2
15:37 90.2 °F 76.0 °F 29.65 in SW 2.0 mph 6.0 mph 64 % 0.00 in 434 W/m2
15:52 90.7 °F 76.0 °F 29.64 in South 1.0 mph 6.0 mph 62 % 0.00 in 879 W/m2
16:07 90.6 °F 77.0 °F 29.64 in NNW 2.0 mph 9.0 mph 64 % 0.00 in 287 W/m2
16:22 89.8 °F 76.0 °F 29.65 in North 1.0 mph 5.0 mph 64 % 0.00 in 258 W/m2
16:37 89.4 °F 77.0 °F 29.64 in NNW 3.0 mph 4.0 mph 66 % 0.00 in 250 W/m2
16:52 88.8 °F 77.0 °F 29.64 in NNE 6.0 mph 8.0 mph 69 % 0.00 in 209 W/m2
17:07 89.6 °F 77.0 °F 29.64 in North 2.0 mph 8.0 mph 66 % 0.00 in 628 W/m2
17:22 90.2 °F 76.0 °F 29.65 in NNW 2.0 mph 6.0 mph 64 % 0.00 in 153 W/m2
17:37 89.5 °F 76.0 °F 29.65 in NNW 1.0 mph 9.0 mph 65 % 0.00 in 142 W/m2
17:52 89.0 °F 76.0 °F 29.65 in NNW 8.0 mph 11.0 mph 65 % 0.00 in 192 W/m2
18:07 88.7 °F 75.0 °F 29.66 in NNW 5.0 mph 11.0 mph 65 % 0.00 in 413 W/m2
18:22 87.9 °F 75.0 °F 29.66 in NNW 6.0 mph 12.0 mph 65 % 0.00 in 366 W/m2
18:37 87.2 °F 74.0 °F 29.67 in NNW 8.0 mph 9.0 mph 64 % 0.00 in 330 W/m2
19:07 86.3 °F 73.0 °F 29.67 in SSW 4.0 mph 11.0 mph 65 % 0.00 in 62 W/m2
19:22 86.0 °F 73.0 °F 29.67 in North 3.0 mph 11.0 mph 65 % 0.00 in 42 W/m2
19:37 85.3 °F 72.0 °F 29.68 in NNW 5.0 mph 10.0 mph 64 % 0.00 in 35 W/m2
19:52 84.7 °F 72.0 °F 29.69 in NW 6.0 mph 12.0 mph 65 % 0.00 in 32 W/m2
20:07 84.3 °F 72.0 °F 29.69 in NNE 3.0 mph 8.0 mph 66 % 0.00 in 28 W/m2
20:22 83.7 °F 71.0 °F 29.70 in NW 3.0 mph 12.0 mph 66 % 0.00 in 23 W/m2
20:37 83.1 °F 71.0 °F 29.71 in WNW 3.0 mph 15.0 mph 66 % 0.00 in 19 W/m2
20:52 82.6 °F 70.0 °F 29.72 in North 4.0 mph 9.0 mph 66 % 0.00 in 14 W/m2
21:07 81.9 °F 70.0 °F 29.73 in NNW 4.0 mph 8.0 mph 67 % 0.00 in 7 W/m2
21:23 80.9 °F 69.0 °F 29.73 in NNW 3.0 mph 8.0 mph 68 % 0.00 in 0 W/m2
21:37 80.1 °F 69.0 °F 29.73 in NNW 3.0 mph 8.0 mph 69 % 0.00 in 0 W/m2
Compliments of Weather Underground - 1.25 mb

13 Visitors online right now
Max visitors today: 15 at 10:38 pm EDT
This month: 26 at 07-06-2016 10:39 am EDT
This year: 77 at 01-01-2016 11:56 pm EST
All time: 104 at 01-04-2012 03:34 am EST
See Who is Online